Time;durP1;ratioP1;P1;durP2;ratioP2;P2;SDS_P1;SDS_P2;PMS_P1;PMS_P2;Temp;Humidity;BMP_temperature;BMP_pressure;BME280_temperature;BME280_humidity;BME280_pressure;Samples;Min_cycle;Max_cycle;Signal;HPM_P1;HPM_P2
2022/02/07 00:00:04;;;;;;;22.63;12.43;;;;;;;0.05;66.78;94534.50;5112485;28;20027;-65
2022/02/07 00:02:50;;;;;;;19.10;12.02;;;;;;;0.11;67.68;94527.38;5094689;28;20046;-65
2022/02/07 00:05:17;;;;;;;19.15;11.77;;;;;;;0.15;66.66;94516.13;5111725;28;20146;-65
2022/02/07 00:07:42;;;;;;;19.15;12.10;;;;;;;0.04;67.26;94527.75;5110731;28;20039;-65
2022/02/07 00:10:09;;;;;;;19.17;12.35;;;;;;;-0.05;67.67;94504.28;5110623;28;20556;-65
2022/02/07 00:12:34;;;;;;;21.23;12.25;;;;;;;0.01;67.57;94502.34;5111910;28;20110;-65
2022/02/07 00:14:59;;;;;;;19.60;11.93;;;;;;;0.05;67.79;94520.00;5111926;27;20421;-65
2022/02/07 00:17:25;;;;;;;18.40;11.43;;;;;;;-0.02;68.27;94519.47;5111707;28;20027;-65
2022/02/07 00:19:50;;;;;;;16.10;10.32;;;;;;;0.00;68.44;94509.19;5112121;28;20039;-65
2022/02/07 00:22:16;;;;;;;17.70;10.27;;;;;;;0.00;68.26;94486.19;5111751;28;20158;-65
2022/02/07 00:24:41;;;;;;;17.90;10.80;;;;;;;0.02;68.17;94499.69;5110405;28;20055;-65
2022/02/07 00:27:06;;;;;;;16.25;10.48;;;;;;;0.02;68.65;94509.09;5093440;28;20028;-65
2022/02/07 00:29:33;;;;;;;13.85;9.68;;;;;;;0.05;68.40;94489.34;5111846;28;20047;-64
2022/02/07 00:31:59;;;;;;;15.48;10.73;;;;;;;0.10;68.09;94497.63;5110395;28;20022;-65
2022/02/07 00:34:24;;;;;;;16.17;10.65;;;;;;;0.16;68.17;94493.94;5111830;28;20072;-65
2022/02/07 00:36:49;;;;;;;17.00;10.52;;;;;;;0.16;68.27;94512.66;5093397;28;20409;-65
2022/02/07 00:39:23;;;;;;;13.65;9.50;;;;;;;0.16;68.28;94499.06;5111223;28;20402;-65
2022/02/07 00:41:56;;;;;;;15.00;9.50;;;;;;;0.11;68.07;94478.84;5110334;28;20035;-65
2022/02/07 00:44:22;;;;;;;16.95;9.88;;;;;;;0.15;67.36;94466.75;5094315;28;20076;-65
2022/02/07 00:46:57;;;;;;;13.27;9.30;;;;;;;0.11;67.29;94472.91;5111401;28;20024;-65
2022/02/07 00:49:22;;;;;;;15.77;9.90;;;;;;;0.06;68.13;94469.75;5110315;28;20106;-65
2022/02/07 00:51:48;;;;;;;14.80;10.32;;;;;;;0.12;67.94;94454.13;5109303;28;20042;-65
2022/02/07 00:54:14;;;;;;;13.95;9.27;;;;;;;0.10;67.87;94446.53;5109916;28;20088;-65
2022/02/07 00:56:40;;;;;;;15.18;9.50;;;;;;;0.11;68.72;94483.13;5110053;28;20084;-65
2022/02/07 00:59:05;;;;;;;16.58;10.38;;;;;;;0.14;68.00;94472.75;5109944;28;20489;-65
2022/02/07 01:01:31;;;;;;;13.85;9.52;;;;;;;0.10;68.17;94455.94;5111200;28;20084;-65
2022/02/07 01:03:56;;;;;;;20.30;12.23;;;;;;;0.03;68.20;94439.22;5109913;28;20043;-64
2022/02/07 01:06:22;;;;;;;17.25;10.80;;;;;;;-0.03;68.37;94435.22;5109997;28;20016;-65
2022/02/07 01:08:52;;;;;;;14.82;10.10;;;;;;;-0.05;68.98;94453.19;5111137;28;20459;-65
2022/02/07 01:11:36;;;;;;;21.23;11.73;;;;;;;-0.02;69.11;94416.47;5110014;28;20081;-65
2022/02/07 01:16:52;;;;;;;14.68;10.23;;;;;;;-0.18;68.91;94401.06;5111455;28;20465;-65
2022/02/07 01:19:35;;;;;;;16.90;9.75;;;;;;;-0.18;69.21;94420.66;5111253;28;20511;-65
2022/02/07 01:56:51;;;;;;;13.57;8.73;;;;;;;0.27;69.62;94353.72;5109727;28;20027;-65
2022/02/07 01:59:17;;;;;;;14.15;8.25;;;;;;;0.21;69.22;94328.50;5110894;28;20043;-65
2022/02/07 02:01:42;;;;;;;13.00;8.57;;;;;;;0.23;69.45;94329.25;5110712;28;20550;-65
2022/02/07 02:04:08;;;;;;;11.02;8.35;;;;;;;0.20;69.80;94329.41;5112784;28;20023;-65
2022/02/07 02:06:34;;;;;;;12.02;8.48;;;;;;;0.14;68.39;94312.66;5114381;28;20028;-65
2022/02/07 02:09:00;;;;;;;12.07;8.48;;;;;;;0.16;69.04;94312.56;5096140;28;20023;-65
2022/02/07 02:11:25;;;;;;;14.00;8.27;;;;;;;0.12;69.13;94321.31;5113029;28;20100;-66
2022/02/07 02:17:06;;;;;;;14.88;8.75;;;;;;;0.05;69.21;94307.16;5098772;28;20073;-65
2022/02/07 02:38:19;;;;;;;14.10;9.75;;;;;;;-0.06;70.63;94300.03;5113624;28;20100;-65
2022/02/07 02:46:20;;;;;;;17.63;10.40;;;;;;;0.06;70.89;94293.50;5113552;28;20160;-64
2022/02/07 02:48:45;;;;;;;14.30;9.93;;;;;;;0.15;71.48;94301.53;5112437;28;20038;-65
2022/02/07 02:51:10;;;;;;;17.20;10.32;;;;;;;0.26;71.51;94297.63;5113402;28;20036;-65
2022/02/07 02:53:36;;;;;;;14.40;10.07;;;;;;;0.24;70.75;94290.00;5112245;28;20039;-65
2022/02/07 02:56:02;;;;;;;13.38;9.40;;;;;;;0.28;70.66;94296.63;5112055;28;20019;-65
2022/02/07 02:58:27;;;;;;;15.82;10.75;;;;;;;0.30;70.40;94297.34;5113357;28;20086;-65
2022/02/07 03:00:53;;;;;;;15.68;10.25;;;;;;;0.37;69.85;94319.16;5112060;28;20024;-67
2022/02/07 03:03:19;;;;;;;13.10;9.45;;;;;;;0.37;69.27;94328.56;5111937;28;20067;-65
2022/02/07 03:05:46;;;;;;;15.18;10.10;;;;;;;0.27;70.04;94294.97;5112016;28;20020;-65
2022/02/07 03:08:12;;;;;;;15.50;10.07;;;;;;;0.38;71.12;94284.19;5095089;28;20382;-65
2022/02/07 03:18:31;;;;;;;15.57;9.82;;;;;;;0.41;71.18;94264.41;5112971;28;20108;-65
2022/02/07 03:20:56;;;;;;;14.02;9.18;;;;;;;0.52;71.13;94257.94;5111687;28;20516;-67
2022/02/07 03:23:22;;;;;;;14.65;10.05;;;;;;;0.52;70.78;94256.19;5077531;28;20070;-65
2022/02/07 03:25:47;;;;;;;15.02;10.88;;;;;;;0.53;70.39;94241.66;5111603;28;20015;-65
2022/02/07 03:28:13;;;;;;;16.08;10.63;;;;;;;0.47;70.47;94244.56;5111339;28;20028;-65
2022/02/07 03:30:39;;;;;;;15.57;10.40;;;;;;;0.41;70.55;94261.84;5111514;28;20035;-65
2022/02/07 03:33:04;;;;;;;15.95;9.90;;;;;;;0.47;70.57;94260.72;5111210;28;20031;-65
2022/02/07 03:35:30;;;;;;;17.95;11.35;;;;;;;0.51;70.41;94252.00;5112587;28;20030;-65
2022/02/07 03:37:55;;;;;;;17.08;10.73;;;;;;;0.52;69.70;94263.03;5109628;28;20043;-65
2022/02/07 03:40:21;;;;;;;15.50;11.30;;;;;;;0.47;69.54;94267.56;5111172;28;20031;-65
2022/02/07 03:42:46;;;;;;;15.20;9.57;;;;;;;0.40;69.51;94270.44;5112466;28;20474;-65
2022/02/07 03:45:12;;;;;;;14.27;8.73;;;;;;;0.39;69.20;94256.03;5111251;28;20031;-65
2022/02/07 03:47:37;;;;;;;13.35;10.35;;;;;;;0.39;70.67;94237.28;5094070;28;20489;-65
2022/02/07 03:50:03;;;;;;;15.48;9.20;;;;;;;0.31;70.72;94259.88;5111048;28;20050;-65
2022/02/07 03:52:29;;;;;;;15.77;10.38;;;;;;;0.27;70.70;94266.03;5094116;28;20092;-66
2022/02/07 03:54:54;;;;;;;16.40;10.18;;;;;;;0.25;70.63;94252.50;5112581;28;20039;-65
2022/02/07 03:57:19;;;;;;;19.25;11.48;;;;;;;0.22;70.36;94233.91;5112194;28;20023;-65
2022/02/07 03:59:45;;;;;;;18.48;11.60;;;;;;;0.18;70.14;94229.03;5110957;28;20065;-65
2022/02/07 04:02:11;;;;;;;22.52;14.48;;;;;;;0.14;70.21;94219.84;5112128;28;20498;-65
2022/02/07 04:04:37;;;;;;;21.10;13.93;;;;;;;0.13;70.41;94241.19;5110944;28;20063;-65
2022/02/07 04:07:05;;;;;;;23.70;15.15;;;;;;;0.08;70.87;94233.75;5093781;28;20032;-65
2022/02/07 04:09:36;;;;;;;16.48;11.80;;;;;;;0.19;70.77;94246.00;5112271;28;20035;-66
2022/02/07 04:12:09;;;;;;;16.45;11.93;;;;;;;0.20;71.20;94237.44;5094737;28;20084;-65
2022/02/07 04:14:35;;;;;;;17.90;11.50;;;;;;;0.16;70.59;94225.72;5111789;28;20084;-65
2022/02/07 04:17:00;;;;;;;17.23;11.13;;;;;;;0.19;71.45;94235.75;5112097;28;20019;-65
2022/02/07 04:19:33;;;;;;;18.58;11.40;;;;;;;0.16;70.65;94244.41;5110639;28;20058;-65
2022/02/07 04:21:58;;;;;;;16.50;11.45;;;;;;;0.15;70.41;94244.50;5111679;28;20494;-65
2022/02/07 04:24:24;;;;;;;15.07;11.38;;;;;;;0.12;70.76;94245.50;5110368;28;20131;-65
2022/02/07 04:26:49;;;;;;;19.08;12.98;;;;;;;0.08;71.48;94245.72;5093554;28;20334;-65
2022/02/07 04:29:15;;;;;;;22.80;14.02;;;;;;;0.10;71.64;94247.28;5110269;28;20059;-65
2022/02/07 04:31:40;;;;;;;22.02;14.82;;;;;;;0.08;72.07;94208.22;5111634;28;20023;-65
2022/02/07 04:34:05;;;;;;;18.77;13.02;;;;;;;0.08;72.47;94215.06;5111786;28;20032;-65
2022/02/07 04:36:31;;;;;;;19.38;13.13;;;;;;;0.05;73.68;94228.00;5076523;28;20437;-65
2022/02/07 04:38:56;;;;;;;14.13;9.02;;;;;;;0.68;73.21;94176.97;5093315;28;20031;-65
2022/02/07 04:41:25;;;;;;;16.58;10.13;;;;;;;0.97;71.83;94223.13;5093293;28;20055;-67
2022/02/07 04:43:59;;;;;;;19.80;11.65;;;;;;;1.06;71.44;94220.91;5111278;28;20043;-65
2022/02/07 05:03:54;;;;;;;11.98;7.82;;;;;;;1.36;69.07;94175.75;5093888;28;20067;-65
2022/02/07 05:14:33;;;;;;;23.45;13.95;;;;;;;1.09;70.37;94161.06;5095795;28;20078;-65
2022/02/07 05:16:59;;;;;;;24.08;14.10;;;;;;;1.06;71.01;94156.94;5109941;28;20103;-66
2022/02/07 05:19:24;;;;;;;22.83;15.07;;;;;;;1.11;70.43;94167.75;5092989;28;20071;-65
2022/02/07 05:21:50;;;;;;;24.25;16.30;;;;;;;1.16;70.54;94177.72;5109870;28;20023;-65
2022/02/07 05:24:15;;;;;;;23.05;14.68;;;;;;;1.17;70.64;94181.09;5082696;28;20559;-65
2022/02/07 05:26:41;;;;;;;20.13;12.82;;;;;;;1.10;70.07;94181.44;5090946;28;20020;-65
2022/02/07 05:29:07;;;;;;;20.42;12.13;;;;;;;1.21;69.99;94203.03;5072641;28;20501;-65
2022/02/07 05:31:32;;;;;;;19.33;12.40;;;;;;;1.00;69.77;94213.53;5089431;28;20410;-66
2022/02/07 05:33:58;;;;;;;22.67;14.15;;;;;;;1.11;71.05;94195.03;5089381;28;20036;-65
2022/02/07 05:36:24;;;;;;;22.95;15.32;;;;;;;1.29;70.48;94191.47;5070690;28;20028;-67
2022/02/07 05:38:51;;;;;;;19.52;12.15;;;;;;;1.34;70.27;94176.69;5070959;28;20040;-65
2022/02/07 05:41:18;;;;;;;17.85;11.95;;;;;;;1.36;69.48;94174.00;5076849;28;20162;-66
2022/02/07 05:43:49;;;;;;;16.13;9.65;;;;;;;1.50;69.83;94150.19;5092108;28;20414;-65
2022/02/07 05:46:15;;;;;;;11.18;8.10;;;;;;;1.87;69.23;94155.75;5068154;28;20458;-65
2022/02/07 05:48:40;;;;;;;13.43;8.55;;;;;;;1.96;68.93;94183.34;5094433;28;20028;-65
2022/02/07 05:51:06;;;;;;;20.80;12.10;;;;;;;1.89;68.98;94187.19;5091917;28;20406;-65
2022/02/07 05:53:31;;;;;;;20.67;11.90;;;;;;;1.87;69.18;94204.41;5092955;28;20032;-65
2022/02/07 05:55:57;;;;;;;25.90;16.55;;;;;;;1.82;68.87;94206.41;5059337;28;20035;-65
2022/02/07 05:58:24;;;;;;;26.35;16.75;;;;;;;1.97;68.61;94225.97;5092322;28;20043;-65
2022/02/07 06:00:51;;;;;;;27.42;16.92;;;;;;;1.86;68.74;94223.22;5088830;28;20020;-64
2022/02/07 06:03:17;;;;;;;27.98;17.15;;;;;;;1.82;69.53;94237.13;5087419;28;20062;-65
2022/02/07 06:05:42;;;;;;;27.33;16.40;;;;;;;1.84;69.31;94225.03;5084121;28;20036;-65
2022/02/07 06:08:08;;;;;;;16.08;11.75;;;;;;;1.85;69.94;94213.91;5069350;28;20048;-65
2022/02/07 06:10:33;;;;;;;15.07;10.18;;;;;;;2.05;69.50;94198.19;5078025;28;20032;-65
2022/02/07 06:12:59;;;;;;;16.85;8.98;;;;;;;2.35;68.46;94190.41;5086329;28;20032;-65
2022/02/07 06:15:24;;;;;;;13.18;8.50;;;;;;;2.59;67.94;94177.84;5084446;28;20422;-66
2022/02/07 06:17:53;;;;;;;11.82;7.75;;;;;;;2.95;66.81;94173.03;5068155;28;20028;-66
2022/02/07 06:20:19;;;;;;;67.45;30.45;;;;;;;2.97;66.77;94194.31;5070341;28;20029;-67
2022/02/07 06:22:47;;;;;;;32.80;17.67;;;;;;;2.92;66.91;94199.72;5052213;28;20423;-66
2022/02/07 06:25:15;;;;;;;29.48;14.23;;;;;;;2.89;67.05;94194.78;5098242;28;20523;-66
2022/02/07 06:27:41;;;;;;;25.45;13.23;;;;;;;2.93;66.70;94185.16;5110481;28;20035;-66
2022/02/07 06:30:07;;;;;;;10.85;6.85;;;;;;;3.21;65.37;94164.53;5113107;28;20030;-66
2022/02/07 06:32:32;;;;;;;17.90;10.38;;;;;;;3.51;64.66;94179.69;5076635;28;20581;-66
2022/02/07 06:34:58;;;;;;;23.42;14.75;;;;;;;3.56;64.91;94176.81;5115353;27;20028;-67
2022/02/07 06:37:23;;;;;;;19.75;13.60;;;;;;;3.48;64.72;94167.06;5112094;28;20417;-66
2022/02/07 06:39:49;;;;;;;20.30;13.65;;;;;;;3.44;64.53;94175.88;5112838;27;20034;-66
2022/02/07 06:42:15;;;;;;;17.63;11.57;;;;;;;3.51;64.24;94166.84;5090929;28;20024;-65
2022/02/07 06:44:41;;;;;;;20.00;11.75;;;;;;;3.64;64.27;94155.75;5114358;27;20393;-65
2022/02/07 06:47:06;;;;;;;14.80;10.00;;;;;;;3.68;63.74;94160.59;5123820;27;20034;-66
2022/02/07 06:49:32;;;;;;;16.75;11.80;;;;;;;3.74;63.96;94164.50;5112468;28;20108;-66
2022/02/07 06:51:57;;;;;;;25.65;18.15;;;;;;;3.85;64.04;94172.31;5121896;27;20049;-66
2022/02/07 06:54:22;;;;;;;26.38;17.20;;;;;;;3.91;63.84;94178.81;5110546;27;20035;-66
2022/02/07 06:56:49;;;;;;;20.17;13.90;;;;;;;3.78;63.82;94153.09;5096190;27;20035;-66
2022/02/07 06:59:17;;;;;;;18.67;13.32;;;;;;;3.92;63.80;94175.31;5111203;28;20042;-66
2022/02/07 07:01:43;;;;;;;27.70;16.58;;;;;;;3.90;64.13;94177.13;5094550;27;20024;-66
2022/02/07 07:04:08;;;;;;;26.15;17.48;;;;;;;3.92;64.09;94155.56;5113838;27;20036;-65
2022/02/07 07:06:35;;;;;;;21.17;13.38;;;;;;;3.70;63.92;94132.22;5109945;27;20503;-66
2022/02/07 07:09:00;;;;;;;20.95;11.75;;;;;;;3.81;63.83;94135.72;5122247;27;20031;-66
2022/02/07 07:11:27;;;;;;;23.05;13.60;;;;;;;3.82;64.37;94139.13;5113650;27;20027;-66
2022/02/07 07:13:58;;;;;;;19.90;11.30;;;;;;;3.75;64.02;94141.28;5110078;27;20036;-66
2022/02/07 07:18:52;;;;;;;18.17;11.25;;;;;;;3.90;64.15;94142.00;5125003;27;20035;-66
2022/02/07 07:21:17;;;;;;;20.50;12.57;;;;;;;3.99;63.82;94141.38;5096116;28;20088;-66
2022/02/07 07:23:43;;;;;;;18.70;11.63;;;;;;;4.07;63.32;94137.44;5103548;28;20109;-66
2022/02/07 07:26:09;;;;;;;15.70;11.10;;;;;;;4.15;63.35;94142.91;5095501;28;20024;-66
2022/02/07 07:28:36;;;;;;;16.65;11.00;;;;;;;4.17;63.25;94125.63;5077251;28;20569;-66
2022/02/07 07:31:03;;;;;;;20.90;12.13;;;;;;;4.18;63.01;94122.13;5118671;27;20408;-67
2022/02/07 07:33:30;;;;;;;20.25;12.57;;;;;;;4.19;63.40;94126.34;5116949;27;20108;-66
2022/02/07 07:35:58;;;;;;;22.55;12.30;;;;;;;4.31;63.00;94140.09;5124298;27;20068;-66
2022/02/07 07:38:24;;;;;;;15.98;10.65;;;;;;;4.51;62.14;94120.72;5097529;28;20126;-66
2022/02/07 07:40:50;;;;;;;17.98;10.98;;;;;;;4.56;61.58;94128.94;5102641;28;20102;-66
2022/02/07 07:43:16;;;;;;;14.18;9.85;;;;;;;4.57;61.72;94109.97;5109230;28;20119;-66
2022/02/07 07:45:47;;;;;;;14.90;9.63;;;;;;;4.62;61.91;94108.72;5111951;27;20031;-67
2022/02/07 07:48:18;;;;;;;23.55;15.32;;;;;;;4.68;61.87;94087.75;5128323;27;20046;-66
2022/02/07 07:50:55;;;;;;;39.47;21.45;;;;;;;4.75;61.89;94067.53;5099628;27;20035;-66
2022/02/07 08:04:03;;;;;;;23.00;14.43;;;;;;;4.96;61.49;94064.31;5100485;28;20473;-66
2022/02/07 08:06:36;;;;;;;29.10;16.85;;;;;;;4.97;61.82;94081.44;5086763;28;20042;-66
2022/02/07 08:11:31;;;;;;;39.10;21.58;;;;;;;5.23;61.49;94077.75;5094717;27;20395;-66
2022/02/07 08:13:57;;;;;;;40.85;27.92;;;;;;;5.67;60.48;94080.56;5091089;28;20084;-66
2022/02/07 08:16:23;;;;;;;50.72;22.48;;;;;;;5.68;59.73;94093.31;5108636;28;20081;-66
2022/02/07 08:18:48;;;;;;;34.35;17.45;;;;;;;5.73;59.26;94086.06;5095164;27;20417;-64
2022/02/07 08:21:14;;;;;;;27.90;16.15;;;;;;;5.75;59.12;94063.56;5110756;27;20024;-66
2022/02/07 08:23:40;;;;;;;23.40;13.48;;;;;;;5.75;58.69;94042.94;5107938;27;20074;-66
2022/02/07 08:26:06;;;;;;;20.95;13.15;;;;;;;5.75;58.88;94053.25;5106001;27;20118;-66
2022/02/07 08:28:32;;;;;;;28.50;16.02;;;;;;;5.78;59.07;94032.41;5086174;28;20559;-66
2022/02/07 08:30:57;;;;;;;34.72;19.33;;;;;;;5.80;58.71;94035.69;5088125;28;20040;-65
2022/02/07 08:33:23;;;;;;;41.70;23.58;;;;;;;5.85;58.71;94049.97;5105964;27;20053;-66
2022/02/07 08:35:48;;;;;;;30.08;15.43;;;;;;;5.83;58.00;94032.88;5084739;28;20031;-66
2022/02/07 08:38:15;;;;;;;34.67;17.15;;;;;;;5.82;58.33;93991.75;5064000;28;20058;-66
2022/02/07 08:40:41;;;;;;;30.65;13.20;;;;;;;5.83;57.96;93970.22;5100837;27;20055;-66
2022/02/07 08:43:06;;;;;;;15.90;9.63;;;;;;;5.70;58.19;93967.75;5107232;28;20205;-66
2022/02/07 08:45:32;;;;;;;21.80;13.15;;;;;;;5.62;58.66;93993.28;5107162;28;20027;-66
2022/02/07 08:47:57;;;;;;;21.92;12.82;;;;;;;5.56;58.99;94012.59;5101213;27;20047;-66
2022/02/07 08:50:26;;;;;;;36.15;18.63;;;;;;;5.62;59.57;94013.06;5104465;27;20028;-68
2022/02/07 08:52:53;;;;;;;36.10;19.00;;;;;;;5.67;59.20;94016.94;5109127;27;20039;-65
2022/02/07 08:55:27;;;;;;;34.05;18.55;;;;;;;5.72;59.24;94001.97;5102916;27;20414;-66
2022/02/07 08:57:59;;;;;;;37.63;18.20;;;;;;;5.74;59.04;93989.78;5104145;28;20049;-66
2022/02/07 09:01:39;;;;;;;41.20;17.63;;;;;;;5.80;58.96;93984.16;5108815;28;20035;-66
2022/02/07 09:08:38;;;;;;;23.00;15.77;;;;;;;5.80;59.14;93948.06;5105349;28;20035;-66
2022/02/07 09:11:04;;;;;;;22.02;15.13;;;;;;;5.71;59.41;93971.13;5106212;28;20032;-68
2022/02/07 09:13:31;;;;;;;33.75;17.45;;;;;;;5.78;59.86;94001.47;5104983;28;20043;-66
2022/02/07 09:18:34;;;;;;;37.58;25.33;;;;;;;5.79;59.39;94000.56;5123676;27;20035;-65
2022/02/07 09:21:01;;;;;;;33.53;22.70;;;;;;;5.85;59.54;94013.88;5080156;27;20038;-68
2022/02/07 09:23:27;;;;;;;27.65;17.30;;;;;;;5.86;59.19;93989.78;5108537;27;20058;-67
2022/02/07 09:25:53;;;;;;;32.10;19.38;;;;;;;5.89;59.14;94007.56;5113572;27;20031;-66
2022/02/07 09:28:19;;;;;;;31.13;17.67;;;;;;;5.95;58.99;94002.78;5121051;27;20034;-67
2022/02/07 09:30:45;;;;;;;23.70;14.38;;;;;;;5.98;58.85;93991.41;5119129;27;20020;-64
2022/02/07 09:33:11;;;;;;;20.58;14.27;;;;;;;6.00;58.69;93984.38;5115752;27;20550;-64
2022/02/07 09:35:36;;;;;;;56.40;26.70;;;;;;;6.06;58.50;93988.25;5092478;28;20035;-64
2022/02/07 09:38:02;;;;;;;54.05;26.83;;;;;;;6.12;58.79;93970.53;5114312;27;20417;-66
2022/02/07 09:40:28;;;;;;;34.33;21.05;;;;;;;6.16;58.48;93971.94;5096211;28;20036;-67
2022/02/07 09:42:58;;;;;;;36.47;23.27;;;;;;;6.19;58.83;93994.91;5103180;28;20023;-66
2022/02/07 09:45:32;;;;;;;25.53;15.80;;;;;;;6.17;58.45;93967.59;5112876;28;20027;-66
2022/02/07 09:47:58;;;;;;;16.65;10.65;;;;;;;6.25;57.15;93952.34;5107946;27;20038;-66
2022/02/07 09:50:24;;;;;;;29.55;17.88;;;;;;;6.17;57.64;93937.47;5109494;27;20050;-67
2022/02/07 09:52:49;;;;;;;33.08;19.02;;;;;;;6.26;57.78;93928.97;5110826;27;20429;-66
2022/02/07 09:55:15;;;;;;;27.02;15.35;;;;;;;6.32;58.05;93937.19;5113133;27;20036;-66
2022/02/07 09:57:40;;;;;;;21.60;12.60;;;;;;;6.30;57.10;93908.13;5104291;27;20019;-65
2022/02/07 10:00:08;;;;;;;10.52;7.72;;;;;;;6.31;56.15;93895.09;5096376;27;20039;-66
2022/02/07 10:03:04;;;;;;;11.43;7.15;;;;;;;6.41;56.27;93893.41;5116063;27;20625;-66
2022/02/07 10:05:26;;;;;;;32.15;19.15;;;;;;;6.48;56.27;93891.16;5113838;27;20515;-67
2022/02/07 10:10:51;;;;;;;33.05;19.67;;;;;;;6.62;56.64;93887.44;5108124;27;20046;-67
2022/02/07 10:13:38;;;;;;;20.73;13.73;;;;;;;6.65;56.39;93869.94;5092298;28;20096;-67
2022/02/07 10:16:25;;;;;;;18.88;13.82;;;;;;;6.76;56.00;93873.41;5105313;27;20062;-66
2022/02/07 10:40:19;;;;;;;;;;;;;;;8.03;48.23;93798.72;5101432;28;20114;-66
2022/02/07 10:43:08;;;;;;;7.78;2.50;;;;;;;8.05;48.53;93808.91;5105775;27;19926;-67
2022/02/07 10:46:18;;;;;;;4.72;2.53;;;;;;;8.10;48.67;93773.13;5100081;28;20093;-67
2022/02/07 10:48:52;;;;;;;5.45;2.17;;;;;;;8.16;48.27;93784.69;5112203;27;20036;-67
2022/02/07 10:51:25;;;;;;;4.03;2.55;;;;;;;8.26;48.15;93786.31;5113096;28;20505;-67
2022/02/07 10:53:58;;;;;;;10.73;4.55;;;;;;;8.29;48.51;93783.44;5112410;27;20115;-67
2022/02/07 10:56:36;;;;;;;18.17;10.38;;;;;;;8.25;49.69;93778.69;5081405;28;20039;-67
2022/02/07 10:59:06;;;;;;;14.57;9.57;;;;;;;8.07;50.47;93774.19;5114056;27;20039;-67
2022/02/07 11:04:06;;;;;;;16.13;10.05;;;;;;;7.90;52.03;93763.75;5111608;27;20039;-70
2022/02/07 11:06:36;;;;;;;14.23;10.18;;;;;;;7.87;52.71;93756.25;5110777;27;20445;-66
2022/02/07 11:11:43;;;;;;;6.28;3.53;;;;;;;7.83;49.67;93724.69;5111692;28;20084;-67
2022/02/07 11:17:03;;;;;;;4.63;2.35;;;;;;;8.09;48.35;93732.69;5131058;27;20034;-64
2022/02/07 11:23:05;;;;;;;4.60;2.17;;;;;;;8.29;46.89;93738.66;5125014;27;20046;-67
2022/02/07 11:27:42;;;;;;;3.95;2.20;;;;;;;8.31;47.92;93738.53;5113706;27;20038;-66
2022/02/07 11:30:12;;;;;;;4.18;2.25;;;;;;;8.29;47.62;93711.00;5116429;27;20035;-65
2022/02/07 11:32:42;;;;;;;4.88;2.28;;;;;;;8.38;47.44;93711.09;5087230;28;20093;-67
2022/02/07 11:35:11;;;;;;;3.80;2.17;;;;;;;8.49;46.72;93716.16;5126572;27;20715;-67
2022/02/07 11:37:36;;;;;;;3.47;2.40;;;;;;;8.48;46.23;93735.22;5109915;27;20020;-67
2022/02/07 11:40:28;;;;;;;4.53;2.05;;;;;;;8.47;47.72;93734.41;5118731;27;20096;-67
2022/02/07 11:43:19;;;;;;;3.20;2.15;;;;;;;8.53;47.33;93719.28;5112548;27;20031;-66
2022/02/07 11:45:52;;;;;;;6.60;2.40;;;;;;;8.48;47.89;93717.13;5112101;28;20404;-66
2022/02/07 11:48:30;;;;;;;5.32;2.35;;;;;;;8.56;47.54;93706.88;5110831;27;20038;-65
2022/02/07 11:50:58;;;;;;;3.30;2.35;;;;;;;8.44;48.76;93702.81;5129177;27;20027;-65
2022/02/07 11:53:34;;;;;;;3.55;2.47;;;;;;;8.34;48.68;93697.66;5055705;28;20036;-65
2022/02/07 11:56:23;;;;;;;3.70;2.40;;;;;;;8.18;49.99;93679.31;5091710;28;20032;-65
2022/02/07 12:02:04;;;;;;;4.90;2.20;;;;;;;8.01;50.69;93648.03;5115812;27;20040;-65
2022/02/07 12:04:47;;;;;;;4.90;2.40;;;;;;;7.99;50.60;93616.31;5097509;28;20023;-66
2022/02/07 12:07:20;;;;;;;4.03;2.20;;;;;;;8.01;50.21;93609.22;5094280;28;20027;-65
2022/02/07 12:10:15;;;;;;;3.33;2.38;;;;;;;8.03;50.29;93602.16;5107075;28;20027;-65
2022/02/07 12:12:41;;;;;;;3.25;2.05;;;;;;;8.08;49.57;93599.16;5109793;28;20034;-65
2022/02/07 12:15:34;;;;;;;8.25;4.22;;;;;;;8.06;50.77;93599.28;5112730;27;20106;-66
2022/02/07 12:18:13;;;;;;;8.88;2.88;;;;;;;7.94;49.82;93563.38;5110692;28;20054;-67
2022/02/07 12:20:38;;;;;;;5.68;2.30;;;;;;;7.97;49.72;93556.16;5123960;27;20423;-65
2022/02/07 12:23:09;;;;;;;5.45;3.08;;;;;;;7.93;49.96;93564.34;5095615;27;20034;-64
2022/02/07 12:25:59;;;;;;;5.30;3.20;;;;;;;7.85;50.68;93577.97;5104745;27;20038;-65
2022/02/07 12:28:46;;;;;;;5.60;2.55;;;;;;;7.86;50.66;93579.63;5108945;27;20418;-66
2022/02/07 12:31:20;;;;;;;6.20;3.47;;;;;;;7.84;51.24;93584.09;5096380;28;20062;-65
2022/02/07 12:34:02;;;;;;;6.32;3.72;;;;;;;7.71;51.16;93597.31;5081240;28;20028;-66
2022/02/07 12:36:32;;;;;;;5.55;2.58;;;;;;;7.83;50.92;93616.09;5085156;28;20031;-65
2022/02/07 12:38:58;;;;;;;6.25;2.90;;;;;;;7.88;51.06;93613.06;5110019;27;20487;-65
2022/02/07 12:41:24;;;;;;;4.50;2.38;;;;;;;7.92;50.97;93620.44;5110132;27;20477;-65
2022/02/07 12:43:51;;;;;;;3.70;2.33;;;;;;;8.02;50.65;93621.22;5110480;27;20038;-65
2022/02/07 12:46:23;;;;;;;5.75;2.40;;;;;;;8.07;50.30;93620.78;5128160;27;20031;-65
2022/02/07 12:49:01;;;;;;;5.85;2.38;;;;;;;7.87;51.45;93632.94;5115022;27;20092;-65
2022/02/07 12:51:31;;;;;;;5.68;2.40;;;;;;;8.02;51.21;93621.22;5089320;28;20034;-65
2022/02/07 12:53:57;;;;;;;3.90;2.15;;;;;;;7.93;51.21;93616.88;5106121;27;20477;-65
2022/02/07 12:56:23;;;;;;;3.58;2.00;;;;;;;7.88;51.77;93624.22;5095239;28;20450;-65
2022/02/07 12:58:50;;;;;;;4.57;2.28;;;;;;;7.87;51.78;93621.78;5112165;28;20041;-65
2022/02/07 13:01:30;;;;;;;3.53;2.10;;;;;;;7.90;52.05;93617.16;5122084;28;20058;-65
2022/02/07 13:04:06;;;;;;;5.10;2.30;;;;;;;7.82;52.30;93596.34;5114377;28;20036;-64
2022/02/07 13:06:35;;;;;;;4.93;2.35;;;;;;;7.92;51.73;93591.97;5089205;28;20031;-64
2022/02/07 13:09:04;;;;;;;6.50;2.30;;;;;;;7.86;52.33;93589.97;5089016;28;20043;-64
2022/02/07 13:11:33;;;;;;;2.90;2.00;;;;;;;7.75;52.23;93590.94;5100949;28;20367;-64
2022/02/07 13:13:59;;;;;;;4.53;2.08;;;;;;;7.91;52.13;93586.94;5088686;28;20028;-64
2022/02/07 13:16:33;;;;;;;5.43;2.67;;;;;;;7.84;52.39;93607.38;5086700;28;20329;-64
2022/02/07 13:19:15;;;;;;;3.20;2.22;;;;;;;7.82;53.03;93593.75;5111699;28;20044;-64
2022/02/07 13:21:42;;;;;;;4.03;2.38;;;;;;;7.73;53.08;93595.41;5112704;28;20079;-64
2022/02/07 13:24:16;;;;;;;3.42;2.33;;;;;;;7.74;53.37;93601.41;5112215;28;20063;-64
2022/02/07 13:26:48;;;;;;;4.50;2.20;;;;;;;7.72;52.96;93583.47;5117875;28;20030;-64
2022/02/07 13:29:21;;;;;;;3.22;2.25;;;;;;;7.61;53.64;93592.19;5090400;28;20108;-64
2022/02/07 13:32:00;;;;;;;3.10;2.05;;;;;;;7.55;53.29;93582.41;5129161;28;20389;-64
2022/02/07 13:34:30;;;;;;;3.92;2.40;;;;;;;7.60;53.35;93597.47;5128391;27;20035;-64
2022/02/07 13:37:12;;;;;;;3.20;2.15;;;;;;;7.60;53.88;93587.97;5110685;28;20072;-65
2022/02/07 13:39:59;;;;;;;6.40;2.40;;;;;;;7.61;53.67;93579.25;5113206;28;20038;-65
2022/02/07 13:42:46;;;;;;;5.05;1.83;;;;;;;7.77;51.91;93576.09;5130220;27;20019;-64
2022/02/07 13:45:25;;;;;;;2.90;2.10;;;;;;;7.73;52.19;93568.75;5129725;27;20127;-64
2022/02/07 13:47:54;;;;;;;3.70;2.00;;;;;;;7.81;51.76;93576.63;5088025;28;20035;-64
2022/02/07 13:50:24;;;;;;;3.58;1.95;;;;;;;7.78;51.80;93562.22;5103521;28;20036;-65
2022/02/07 13:52:51;;;;;;;3.72;2.08;;;;;;;7.80;52.81;93560.31;5110796;28;20035;-64
2022/02/07 13:55:23;;;;;;;3.20;1.90;;;;;;;7.82;52.60;93562.75;5130415;27;20697;-64
2022/02/07 13:58:08;;;;;;;2.65;2.08;;;;;;;7.77;53.10;93583.03;5130664;27;20023;-64
2022/02/07 14:00:34;;;;;;;4.97;2.30;;;;;;;7.68;53.17;93571.75;5126927;27;20037;-64
2022/02/07 14:03:32;;;;;;;2.90;1.95;;;;;;;7.65;52.44;93555.72;5114285;27;20516;-64
2022/02/07 14:06:09;;;;;;;5.15;2.47;;;;;;;7.66;53.37;93565.09;5114408;27;20031;-64
2022/02/07 14:08:36;;;;;;;5.72;2.70;;;;;;;7.60;53.39;93556.97;5129830;27;20031;-64
2022/02/07 14:11:06;;;;;;;3.25;2.17;;;;;;;7.56;54.14;93553.00;5106407;28;20421;-64
2022/02/07 14:13:32;;;;;;;5.32;2.22;;;;;;;7.52;53.80;93541.34;5112911;28;20027;-64
2022/02/07 14:15:58;;;;;;;3.20;2.25;;;;;;;7.50;53.92;93526.94;5114787;27;20044;-64
2022/02/07 14:18:25;;;;;;;3.45;2.17;;;;;;;7.45;53.61;93531.69;5133453;27;20034;-64
2022/02/07 14:20:51;;;;;;;5.57;2.17;;;;;;;7.63;52.47;93513.69;5133524;27;20030;-64
2022/02/07 14:23:16;;;;;;;4.60;2.65;;;;;;;7.63;53.57;93526.59;5095924;28;20059;-64